Terminal Aerodrome Forecast
Issued by NWS Upton, NY

Home | Current Version | Previous Version | Text Only | Print | Product List | Glossary On
Versions: 1 2 3 4 5 6 7 8 9 10 11 12 13 14 15 16 17 18 19 20 21 22 23 24 25 26 27 28 29 30 31 32 33 34 35
000
FTUS41 KOKX 242332
TAFJFK
TAF
KJFK 242332Z 2500/2606 03006KT P6SM SCT020 OVC050
      TEMPO 2500/2503 -SHRA
     FM250300 06008KT 6SM BR SCT015 OVC040
      TEMPO 2507/2509 BKN015
     FM250900 08012G19KT 3SM RA BR OVC008
     FM251100 09015G24KT 2SM RA BR OVC008
     FM251800 07006KT 2SM -RA BR OVC008
      TEMPO 2518/2521 1SM BR OVC004
     FM252100 35005KT 4SM BR BKN015
     FM260400 31004KT P6SM SCT015 BKN250=

USA.gov is the U.S. government's official web portal to all federal, state and local government web resources and services.